Time,TemperatureF,DewpointF,PressureIn,WindDirection,WindDirectionDegrees,WindSpeedMPH,WindSpeedGustMPH,Humidity,HourlyPrecipIn,Conditions,Clouds,dailyrainin,SoftwareType,DateUTC
2013-11-03 00:04:00,47.8,31.5,-100.00,North,-999,0.0,0.0,53,0.00,,,-99.99,FreeWX-Wi 1.01,2013-11-03 04:04:00,
2013-11-03 00:14:00,47.5,31.3,-100.00,North,-999,0.0,0.0,53,0.00,,,-99.99,FreeWX-Wi 1.01,2013-11-03 04:14:00,
2013-11-03 00:23:00,47.1,30.9,-100.00,North,-999,0.0,0.0,53,0.00,,,-99.99,FreeWX-Wi 1.01,2013-11-03 04:23:00,
2013-11-03 00:34:00,46.8,30.6,-100.00,North,-999,0.0,0.0,53,0.00,,,-99.99,FreeWX-Wi 1.01,2013-11-03 04:34:00,
2013-11-03 00:44:00,46.6,30.9,-100.00,North,-999,0.0,0.0,54,0.00,,,-99.99,FreeWX-Wi 1.01,2013-11-03 04:44:00,
2013-11-03 00:54:00,46.4,30.7,-100.00,North,-999,0.0,0.0,54,0.00,,,-99.99,FreeWX-Wi 1.01,2013-11-03 04:54:00,
2013-11-03 01:04:00,46.2,30.6,-100.00,North,-999,0.0,0.0,54,0.00,,,-99.99,FreeWX-Wi 1.01,2013-11-03 05:04:00,
2013-11-03 01:14:00,45.9,30.2,-100.00,North,-999,0.0,0.0,54,0.00,,,-99.99,FreeWX-Wi 1.01,2013-11-03 05:14:00,
2013-11-03 01:24:00,45.9,30.6,-100.00,North,-999,0.0,0.0,55,0.00,,,-99.99,FreeWX-Wi 1.01,2013-11-03 05:24:00,
2013-11-03 01:34:00,45.7,30.4,-100.00,North,-999,0.0,0.0,55,0.00,,,-99.99,FreeWX-Wi 1.01,2013-11-03 05:34:00,
2013-11-03 01:44:00,45.5,30.2,-100.00,North,-999,0.0,0.0,55,0.00,,,-99.99,FreeWX-Wi 1.01,2013-11-03 05:44:00,
2013-11-03 01:53:00,45.3,29.7,-100.00,North,-999,0.0,0.0,54,0.00,,,-99.99,FreeWX-Wi 1.01,2013-11-03 05:53:00,
2013-11-03 02:03:00,43.7,26.8,-100.00,North,-999,0.0,0.0,51,0.00,,,-99.99,FreeWX-Wi 1.01,2013-11-03 07:03:00,
2013-11-03 02:14:00,43.3,25.5,-100.00,North,-999,0.0,0.0,49,0.00,,,-99.99,FreeWX-Wi 1.01,2013-11-03 07:14:00,
2013-11-03 02:24:00,42.8,23.0,-100.00,North,-999,0.0,0.0,45,0.00,,,-99.99,FreeWX-Wi 1.01,2013-11-03 07:24:00,
2013-11-03 02:34:00,42.6,22.8,-100.00,North,-999,0.0,0.0,45,0.00,,,-99.99,FreeWX-Wi 1.01,2013-11-03 07:34:00,
2013-11-03 02:44:00,42.4,22.6,-100.00,North,-999,0.0,0.0,45,0.00,,,-99.99,FreeWX-Wi 1.01,2013-11-03 07:44:00,
2013-11-03 02:54:00,42.1,21.7,-100.00,North,-999,0.0,0.0,44,0.00,,,-99.99,FreeWX-Wi 1.01,2013-11-03 07:54:00,
2013-11-03 03:04:00,41.7,20.8,-100.00,North,-999,0.0,0.0,43,0.00,,,-99.99,FreeWX-Wi 1.01,2013-11-03 08:04:00,
2013-11-03 03:14:00,41.2,20.5,-100.00,North,-999,0.0,0.0,43,0.00,,,-99.99,FreeWX-Wi 1.01,2013-11-03 08:14:00,
2013-11-03 03:24:00,41.0,19.8,-100.00,North,-999,0.0,0.0,42,0.00,,,-99.99,FreeWX-Wi 1.01,2013-11-03 08:24:00,
2013-11-03 03:34:00,41.0,19.8,-100.00,North,-999,0.0,0.0,42,0.00,,,-99.99,FreeWX-Wi 1.01,2013-11-03 08:34:00,
2013-11-03 03:44:00,40.8,18.3,-100.00,North,-999,0.0,0.0,40,0.00,,,-99.99,FreeWX-Wi 1.01,2013-11-03 08:44:00,
2013-11-03 03:54:00,40.6,18.1,-100.00,North,-999,0.0,0.0,40,0.00,,,-99.99,FreeWX-Wi 1.01,2013-11-03 08:54:00,
2013-11-03 04:04:00,40.5,16.9,-100.00,North,-999,0.0,0.0,38,0.00,,,-99.99,FreeWX-Wi 1.01,2013-11-03 09:04:00,
2013-11-03 04:14:00,40.3,16.7,-100.00,North,-999,0.0,0.0,38,0.00,,,-99.99,FreeWX-Wi 1.01,2013-11-03 09:14:00,
2013-11-03 04:24:00,40.1,16.5,-100.00,North,-999,0.0,0.0,38,0.00,,,-99.99,FreeWX-Wi 1.01,2013-11-03 09:24:00,
2013-11-03 04:34:00,39.9,16.3,-100.00,North,-999,0.0,0.0,38,0.00,,,-99.99,FreeWX-Wi 1.01,2013-11-03 09:34:00,
2013-11-03 04:44:00,39.7,16.2,-100.00,North,-999,0.0,0.0,38,0.00,,,-99.99,FreeWX-Wi 1.01,2013-11-03 09:44:00,
2013-11-03 04:53:00,39.7,17.4,-100.00,North,-999,0.0,0.0,40,0.00,,,-99.99,FreeWX-Wi 1.01,2013-11-03 09:53:00,
2013-11-03 05:04:00,39.7,17.4,-100.00,North,-999,0.0,0.0,40,0.00,,,-99.99,FreeWX-Wi 1.01,2013-11-03 10:04:00,
2013-11-03 05:14:00,39.6,16.2,-100.00,North,-999,0.0,0.0,38,0.00,,,-99.99,FreeWX-Wi 1.01,2013-11-03 10:14:00,
2013-11-03 05:23:00,39.2,16.9,-100.00,North,-999,0.0,0.0,40,0.00,,,-99.99,FreeWX-Wi 1.01,2013-11-03 10:23:00,
2013-11-03 05:34:00,38.8,18.3,-100.00,North,-999,0.0,0.0,43,0.00,,,-99.99,FreeWX-Wi 1.01,2013-11-03 10:34:00,
2013-11-03 05:44:00,38.5,18.5,-100.00,North,-999,0.0,0.0,44,0.00,,,-99.99,FreeWX-Wi 1.01,2013-11-03 10:44:00,
2013-11-03 05:54:00,38.5,18.5,-100.00,North,-999,0.0,0.0,44,0.00,,,-99.99,FreeWX-Wi 1.01,2013-11-03 10:54:00,
2013-11-03 06:04:00,38.5,18.5,-100.00,North,-999,0.0,0.0,44,0.00,,,-99.99,FreeWX-Wi 1.01,2013-11-03 11:04:00,
2013-11-03 06:13:00,38.3,18.9,-100.00,North,-999,0.0,0.0,45,0.00,,,-99.99,FreeWX-Wi 1.01,2013-11-03 11:13:00,
2013-11-03 06:24:00,37.9,19.0,-100.00,North,-999,0.0,0.0,46,0.00,,,-99.99,FreeWX-Wi 1.01,2013-11-03 11:24:00,
2013-11-03 06:34:00,37.6,19.2,-100.00,North,-999,0.0,0.0,47,0.00,,,-99.99,FreeWX-Wi 1.01,2013-11-03 11:34:00,
2013-11-03 06:44:00,37.4,19.0,-100.00,North,-999,0.0,0.0,47,0.00,,,-99.99,FreeWX-Wi 1.01,2013-11-03 11:44:00,
2013-11-03 06:54:00,37.2,19.4,-100.00,North,-999,0.0,0.0,48,0.00,,,-99.99,FreeWX-Wi 1.01,2013-11-03 11:54:00,
2013-11-03 07:04:00,37.0,19.8,-100.00,North,-999,0.0,0.0,49,0.00,,,-99.99,FreeWX-Wi 1.01,2013-11-03 12:04:00,
2013-11-03 07:14:00,37.0,20.1,-100.00,North,-999,0.0,0.0,50,0.00,,,-99.99,FreeWX-Wi 1.01,2013-11-03 12:14:00,
2013-11-03 07:24:00,37.0,20.1,-100.00,North,-999,0.0,0.0,50,0.00,,,-99.99,FreeWX-Wi 1.01,2013-11-03 12:24:00,
2013-11-03 07:34:00,37.0,19.8,-100.00,North,-999,0.0,0.0,49,0.00,,,-99.99,FreeWX-Wi 1.01,2013-11-03 12:34:00,
2013-11-03 07:44:00,36.9,19.0,-100.00,North,-999,0.0,0.0,48,0.00,,,-99.99,FreeWX-Wi 1.01,2013-11-03 12:44:00,
2013-11-03 07:54:00,37.0,18.1,-100.00,North,-999,0.0,0.0,46,0.00,,,-99.99,FreeWX-Wi 1.01,2013-11-03 12:54:00,
2013-11-03 08:04:00,37.2,17.8,-100.00,North,-999,0.0,0.0,45,0.00,,,-99.99,FreeWX-Wi 1.01,2013-11-03 13:04:00,
2013-11-03 08:14:00,37.4,17.4,-100.00,North,-999,0.0,0.0,44,0.00,,,-99.99,FreeWX-Wi 1.01,2013-11-03 13:14:00,
2013-11-03 08:23:00,37.4,17.4,-100.00,North,-999,0.0,0.0,44,0.00,,,-99.99,FreeWX-Wi 1.01,2013-11-03 13:23:00,
2013-11-03 08:34:00,37.4,17.1,-100.00,North,-999,0.0,0.0,43,0.00,,,-99.99,FreeWX-Wi 1.01,2013-11-03 13:34:00,
2013-11-03 08:44:00,37.0,17.2,-100.00,North,-999,0.0,0.0,44,0.00,,,-99.99,FreeWX-Wi 1.01,2013-11-03 13:44:00,
2013-11-03 08:53:00,36.5,16.7,-100.00,North,-999,0.0,0.0,44,0.00,,,-99.99,FreeWX-Wi 1.01,2013-11-03 13:53:00,
2013-11-03 09:04:00,36.3,17.1,-100.00,North,-999,0.0,0.0,45,0.00,,,-99.99,FreeWX-Wi 1.01,2013-11-03 14:04:00,
2013-11-03 09:13:00,36.0,17.2,-100.00,North,-999,0.0,0.0,46,0.00,,,-99.99,FreeWX-Wi 1.01,2013-11-03 14:13:00,
2013-11-03 09:24:00,35.8,18.0,-100.00,North,-999,0.0,0.0,48,0.00,,,-99.99,FreeWX-Wi 1.01,2013-11-03 14:24:00,
2013-11-03 09:34:00,35.6,18.9,-100.00,North,-999,0.0,0.0,50,0.00,,,-99.99,FreeWX-Wi 1.01,2013-11-03 14:34:00,
2013-11-03 09:44:00,35.8,19.9,-100.00,North,-999,0.0,0.0,52,0.00,,,-99.99,FreeWX-Wi 1.01,2013-11-03 14:44:00,
2013-11-03 09:54:00,36.0,19.6,-100.00,North,-999,0.0,0.0,51,0.00,,,-99.99,FreeWX-Wi 1.01,2013-11-03 14:54:00,
2013-11-03 10:14:00,36.5,18.7,-100.00,North,-999,0.0,0.0,48,0.00,,,-99.99,FreeWX-Wi 1.01,2013-11-03 15:14:00,
2013-11-03 10:24:00,36.7,18.9,-100.00,North,-999,0.0,0.0,48,0.00,,,-99.99,FreeWX-Wi 1.01,2013-11-03 15:24:00,
2013-11-03 10:34:00,36.5,17.8,-100.00,North,-999,0.0,0.0,46,0.00,,,-99.99,FreeWX-Wi 1.01,2013-11-03 15:34:00,
2013-11-03 10:44:00,36.7,17.4,-100.00,North,-999,0.0,0.0,45,0.00,,,-99.99,FreeWX-Wi 1.01,2013-11-03 15:44:00,
2013-11-03 10:54:00,36.7,16.9,-100.00,North,-999,0.0,0.0,44,0.00,,,-99.99,FreeWX-Wi 1.01,2013-11-03 15:54:00,
2013-11-03 11:04:00,37.0,17.2,-100.00,North,-999,0.0,0.0,44,0.00,,,-99.99,FreeWX-Wi 1.01,2013-11-03 16:04:00,
2013-11-03 11:13:00,37.2,15.8,-100.00,North,-999,0.0,0.0,41,0.00,,,-99.99,FreeWX-Wi 1.01,2013-11-03 16:13:00,
2013-11-03 11:24:00,37.4,15.8,-100.00,North,-999,0.0,0.0,41,0.00,,,-99.99,FreeWX-Wi 1.01,2013-11-03 16:24:00,
2013-11-03 11:34:00,37.9,16.3,-100.00,North,-999,0.0,0.0,41,0.00,,,-99.99,FreeWX-Wi 1.01,2013-11-03 16:34:00,
2013-11-03 11:44:00,38.1,13.6,-100.00,North,-999,0.0,0.0,36,0.00,,,-99.99,FreeWX-Wi 1.01,2013-11-03 16:44:00,
2013-11-03 11:53:00,38.8,14.2,-100.00,North,-999,0.0,0.0,36,0.00,,,-99.99,FreeWX-Wi 1.01,2013-11-03 16:53:00,
2013-11-03 12:04:00,39.6,12.9,-100.00,North,-999,0.0,0.0,33,0.00,,,-99.99,FreeWX-Wi 1.01,2013-11-03 17:04:00,
2013-11-03 12:14:00,39.7,13.1,-100.00,North,-999,0.0,0.0,33,0.00,,,-99.99,FreeWX-Wi 1.01,2013-11-03 17:14:00,
2013-11-03 12:24:00,39.7,10.9,-100.00,North,-999,0.0,0.0,30,0.00,,,-99.99,FreeWX-Wi 1.01,2013-11-03 17:24:00,
2013-11-03 12:34:00,39.7,10.9,-100.00,North,-999,0.0,0.0,30,0.00,,,-99.99,FreeWX-Wi 1.01,2013-11-03 17:34:00,
2013-11-03 12:43:00,39.7,10.9,-100.00,North,-999,0.0,0.0,30,0.00,,,-99.99,FreeWX-Wi 1.01,2013-11-03 17:43:00,
2013-11-03 12:54:00,39.4,10.6,-100.00,North,-999,0.0,0.0,30,0.00,,,-99.99,FreeWX-Wi 1.01,2013-11-03 17:54:00,
2013-11-03 13:03:00,39.4,10.6,-100.00,North,-999,0.0,0.0,30,0.00,,,-99.99,FreeWX-Wi 1.01,2013-11-03 18:03:00,
2013-11-03 13:14:00,39.6,10.8,-100.00,North,-999,0.0,0.0,30,0.00,,,-99.99,FreeWX-Wi 1.01,2013-11-03 18:14:00,
2013-11-03 13:24:00,39.4,10.6,-100.00,North,-999,0.0,0.0,30,0.00,,,-99.99,FreeWX-Wi 1.01,2013-11-03 18:24:00,
2013-11-03 13:34:00,39.6,10.8,-100.00,North,-999,0.0,0.0,30,0.00,,,-99.99,FreeWX-Wi 1.01,2013-11-03 18:34:00,
2013-11-03 13:44:00,39.9,10.9,-100.00,North,-999,0.0,0.0,30,0.00,,,-99.99,FreeWX-Wi 1.01,2013-11-03 18:44:00,
2013-11-03 13:54:00,40.1,11.1,-100.00,North,-999,0.0,0.0,30,0.00,,,-99.99,FreeWX-Wi 1.01,2013-11-03 18:54:00,
2013-11-03 14:04:00,40.1,11.1,-100.00,North,-999,0.0,0.0,30,0.00,,,-99.99,FreeWX-Wi 1.01,2013-11-03 19:04:00,
2013-11-03 14:14:00,40.5,11.5,-100.00,North,-999,0.0,0.0,30,0.00,,,-99.99,FreeWX-Wi 1.01,2013-11-03 19:14:00,
2013-11-03 14:24:00,40.5,11.5,-100.00,North,-999,0.0,0.0,30,0.00,,,-99.99,FreeWX-Wi 1.01,2013-11-03 19:24:00,
2013-11-03 14:34:00,40.6,11.7,-100.00,North,-999,0.0,0.0,30,0.00,,,-99.99,FreeWX-Wi 1.01,2013-11-03 19:34:00,
2013-11-03 14:44:00,40.8,11.8,-100.00,North,-999,0.0,0.0,30,0.00,,,-99.99,FreeWX-Wi 1.01,2013-11-03 19:44:00,
2013-11-03 14:54:00,40.6,11.7,-100.00,North,-999,0.0,0.0,30,0.00,,,-99.99,FreeWX-Wi 1.01,2013-11-03 19:54:00,
2013-11-03 15:04:00,40.6,11.7,-100.00,North,-999,0.0,0.0,30,0.00,,,-99.99,FreeWX-Wi 1.01,2013-11-03 20:04:00,
2013-11-03 15:15:00,40.6,11.7,-100.00,North,-999,0.0,0.0,30,0.00,,,-99.99,FreeWX-Wi 1.01,2013-11-03 20:15:00,
2013-11-03 15:25:00,40.5,11.5,-100.00,North,-999,0.0,0.0,30,0.00,,,-99.99,FreeWX-Wi 1.01,2013-11-03 20:25:00,
2013-11-03 15:35:00,40.3,11.3,-100.00,North,-999,0.0,0.0,30,0.00,,,-99.99,FreeWX-Wi 1.01,2013-11-03 20:35:00,
2013-11-03 15:45:00,40.1,11.1,-100.00,North,-999,0.0,0.0,30,0.00,,,-99.99,FreeWX-Wi 1.01,2013-11-03 20:45:00,
2013-11-03 15:55:00,39.7,9.3,-100.00,North,-999,0.0,0.0,28,0.00,,,-99.99,FreeWX-Wi 1.01,2013-11-03 20:55:00,
2013-11-03 16:05:00,39.4,9.0,-100.00,North,-999,0.0,0.0,28,0.00,,,-99.99,FreeWX-Wi 1.01,2013-11-03 21:05:00,
2013-11-03 16:15:00,39.2,8.8,-100.00,North,-999,0.0,0.0,28,0.00,,,-99.99,FreeWX-Wi 1.01,2013-11-03 21:15:00,
2013-11-03 16:25:00,38.8,8.6,-100.00,North,-999,0.0,0.0,28,0.00,,,-99.99,FreeWX-Wi 1.01,2013-11-03 21:25:00,
2013-11-03 16:35:00,38.5,8.2,-100.00,North,-999,0.0,0.0,28,0.00,,,-99.99,FreeWX-Wi 1.01,2013-11-03 21:35:00,
2013-11-03 16:45:00,38.1,7.9,-100.00,North,-999,0.0,0.0,28,0.00,,,-99.99,FreeWX-Wi 1.01,2013-11-03 21:45:00,
2013-11-03 16:55:00,37.8,7.7,-100.00,North,-999,0.0,0.0,28,0.00,,,-99.99,FreeWX-Wi 1.01,2013-11-03 21:55:00,
2013-11-03 17:05:00,37.4,7.3,-100.00,North,-999,0.0,0.0,28,0.00,,,-99.99,FreeWX-Wi 1.01,2013-11-03 22:05:00,
2013-11-03 17:15:00,37.2,7.2,-100.00,North,-999,0.0,0.0,28,0.00,,,-99.99,FreeWX-Wi 1.01,2013-11-03 22:15:00,
2013-11-03 17:25:00,37.0,7.0,-100.00,North,-999,0.0,0.0,28,0.00,,,-99.99,FreeWX-Wi 1.01,2013-11-03 22:25:00,
2013-11-03 17:34:00,36.7,6.6,-100.00,North,-999,0.0,0.0,28,0.00,,,-99.99,FreeWX-Wi 1.01,2013-11-03 22:34:00,
2013-11-03 17:45:00,36.5,6.4,-100.00,North,-999,0.0,0.0,28,0.00,,,-99.99,FreeWX-Wi 1.01,2013-11-03 22:45:00,
2013-11-03 17:54:00,36.3,6.4,-100.00,North,-999,0.0,0.0,28,0.00,,,-99.99,FreeWX-Wi 1.01,2013-11-03 22:54:00,
2013-11-03 18:05:00,36.1,6.3,-100.00,North,-999,0.0,0.0,28,0.00,,,-99.99,FreeWX-Wi 1.01,2013-11-03 23:05:00,
2013-11-03 18:15:00,35.8,5.9,-100.00,North,-999,0.0,0.0,28,0.00,,,-99.99,FreeWX-Wi 1.01,2013-11-03 23:15:00,
2013-11-03 18:25:00,35.6,5.7,-100.00,North,-999,0.0,0.0,28,0.00,,,-99.99,FreeWX-Wi 1.01,2013-11-03 23:25:00,
2013-11-03 18:35:00,35.4,6.4,-100.00,North,-999,0.0,0.0,29,0.00,,,-99.99,FreeWX-Wi 1.01,2013-11-03 23:35:00,
2013-11-03 18:45:00,35.2,6.3,-100.00,North,-999,0.0,0.0,29,0.00,,,-99.99,FreeWX-Wi 1.01,2013-11-03 23:45:00,
2013-11-03 18:55:00,34.9,5.9,-100.00,North,-999,0.0,0.0,29,0.00,,,-99.99,FreeWX-Wi 1.01,2013-11-03 23:55:00,
2013-11-03 19:04:00,34.7,5.7,-100.00,North,-999,0.0,0.0,29,0.00,,,-99.99,FreeWX-Wi 1.01,2013-11-04 00:04:00,
2013-11-03 19:15:00,34.3,5.4,-100.00,North,-999,0.0,0.0,29,0.00,,,-99.99,FreeWX-Wi 1.01,2013-11-04 00:15:00,
2013-11-03 19:25:00,34.2,5.2,-100.00,North,-999,0.0,0.0,29,0.00,,,-99.99,FreeWX-Wi 1.01,2013-11-04 00:25:00,
2013-11-03 19:35:00,34.0,5.2,-100.00,North,-999,0.0,0.0,29,0.00,,,-99.99,FreeWX-Wi 1.01,2013-11-04 00:35:00,
2013-11-03 19:45:00,33.6,4.8,-100.00,North,-999,0.0,0.0,29,0.00,,,-99.99,FreeWX-Wi 1.01,2013-11-04 00:45:00,
2013-11-03 19:54:00,33.3,4.5,-100.00,North,-999,0.0,0.0,29,0.00,,,-99.99,FreeWX-Wi 1.01,2013-11-04 00:54:00,
2013-11-03 20:04:00,33.3,4.5,-100.00,North,-999,0.0,0.0,29,0.00,,,-99.99,FreeWX-Wi 1.01,2013-11-04 01:04:00,
2013-11-03 20:15:00,33.1,4.3,-100.00,North,-999,0.0,0.0,29,0.00,,,-99.99,FreeWX-Wi 1.01,2013-11-04 01:15:00,
2013-11-03 20:25:00,32.9,4.1,-100.00,North,-999,0.0,0.0,29,0.00,,,-99.99,FreeWX-Wi 1.01,2013-11-04 01:25:00,
2013-11-03 20:35:00,32.7,4.1,-100.00,North,-999,0.0,0.0,29,0.00,,,-99.99,FreeWX-Wi 1.01,2013-11-04 01:35:00,
2013-11-03 20:45:00,32.5,3.9,-100.00,North,-999,0.0,0.0,29,0.00,,,-99.99,FreeWX-Wi 1.01,2013-11-04 01:45:00,
2013-11-03 20:55:00,32.4,3.7,-100.00,North,-999,0.0,0.0,29,0.00,,,-99.99,FreeWX-Wi 1.01,2013-11-04 01:55:00,
2013-11-03 21:05:00,32.2,3.6,-100.00,North,-999,0.0,0.0,29,0.00,,,-99.99,FreeWX-Wi 1.01,2013-11-04 02:05:00,
2013-11-03 21:15:00,32.2,3.6,-100.00,North,-999,0.0,0.0,29,0.00,,,-99.99,FreeWX-Wi 1.01,2013-11-04 02:15:00,
2013-11-03 21:25:00,32.0,3.4,-100.00,North,-999,0.0,0.0,29,0.00,,,-99.99,FreeWX-Wi 1.01,2013-11-04 02:25:00,
2013-11-03 21:35:00,31.8,3.9,-100.00,North,-999,0.0,0.0,30,0.00,,,-99.99,FreeWX-Wi 1.01,2013-11-04 02:35:00,
2013-11-03 21:45:00,31.6,3.7,-100.00,North,-999,0.0,0.0,30,0.00,,,-99.99,FreeWX-Wi 1.01,2013-11-04 02:45:00,
2013-11-03 21:55:00,31.5,3.6,-100.00,North,-999,0.0,0.0,30,0.00,,,-99.99,FreeWX-Wi 1.01,2013-11-04 02:55:00,
2013-11-03 22:05:00,31.1,3.4,-100.00,North,-999,0.0,0.0,30,0.00,,,-99.99,FreeWX-Wi 1.01,2013-11-04 03:05:00,
2013-11-03 22:15:00,30.9,3.2,-100.00,North,-999,0.0,0.0,30,0.00,,,-99.99,FreeWX-Wi 1.01,2013-11-04 03:15:00,
2013-11-03 22:25:00,30.7,3.0,-100.00,North,-999,0.0,0.0,30,0.00,,,-99.99,FreeWX-Wi 1.01,2013-11-04 03:25:00,
2013-11-03 22:35:00,30.6,2.8,-100.00,North,-999,0.0,0.0,30,0.00,,,-99.99,FreeWX-Wi 1.01,2013-11-04 03:35:00,
2013-11-03 22:44:00,30.4,2.7,-100.00,North,-999,0.0,0.0,30,0.00,,,-99.99,FreeWX-Wi 1.01,2013-11-04 03:44:00,
2013-11-03 22:55:00,30.0,2.3,-100.00,North,-999,0.0,0.0,30,0.00,,,-99.99,FreeWX-Wi 1.01,2013-11-04 03:55:00,
2013-11-03 23:05:00,29.7,2.1,-100.00,North,-999,0.0,0.0,30,0.00,,,-99.99,FreeWX-Wi 1.01,2013-11-04 04:05:00,
2013-11-03 23:14:00,29.5,1.9,-100.00,North,-999,0.0,0.0,30,0.00,,,-99.99,FreeWX-Wi 1.01,2013-11-04 04:14:00,
2013-11-03 23:25:00,29.3,1.8,-100.00,North,-999,0.0,0.0,30,0.00,,,-99.99,FreeWX-Wi 1.01,2013-11-04 04:25:00,
2013-11-03 23:34:00,29.1,1.6,-100.00,North,-999,0.0,0.0,30,0.00,,,-99.99,FreeWX-Wi 1.01,2013-11-04 04:34:00,
2013-11-03 23:45:00,28.8,1.2,-100.00,North,-999,0.0,0.0,30,0.00,,,-99.99,FreeWX-Wi 1.01,2013-11-04 04:45:00,
2013-11-03 23:55:00,28.6,1.0,-100.00,North,-999,0.0,0.0,30,0.00,,,-99.99,FreeWX-Wi 1.01,2013-11-04 04:55:00,